Time;durP1;ratioP1;P1;durP2;ratioP2;P2;SDS_P1;SDS_P2;PMS_P1;PMS_P2;Temp;Humidity;BMP_temperature;BMP_pressure;BME280_temperature;BME280_humidity;BME280_pressure;Samples;Min_cycle;Max_cycle;Signal;HPM_P1;HPM_P2
2021/03/12 00:02:07;;;;;;;4.63;0.70;;;;;;;4.56;78.97;99309.00;4862751;29;20081;-49
2021/03/12 00:04:33;;;;;;;6.28;1.00;;;;;;;4.56;79.08;99315.28;4863774;29;20101;-48
2021/03/12 00:07:00;;;;;;;2.80;1.00;;;;;;;4.53;78.98;99310.47;4870648;29;20136;-49
2021/03/12 00:09:26;;;;;;;9.40;1.60;;;;;;;4.52;79.11;99313.56;4863173;29;20141;-51
2021/03/12 00:11:52;;;;;;;1.95;0.73;;;;;;;4.48;79.21;99310.69;4872879;29;20041;-51
2021/03/12 00:14:19;;;;;;;3.15;0.50;;;;;;;4.46;79.21;99307.50;4873336;29;20093;-52
2021/03/12 00:16:45;;;;;;;3.47;0.50;;;;;;;4.42;78.90;99297.56;4861399;29;20082;-51
2021/03/12 00:19:12;;;;;;;3.20;0.63;;;;;;;4.41;79.22;99295.97;4847291;29;20042;-52
2021/03/12 00:21:38;;;;;;;5.70;0.90;;;;;;;4.36;79.15;99297.00;4862099;29;20057;-52
2021/03/12 00:24:06;;;;;;;3.10;0.45;;;;;;;4.36;79.30;99298.91;4867430;29;20089;-51
2021/03/12 00:26:32;;;;;;;2.97;0.55;;;;;;;4.35;79.25;99297.31;4848719;29;20143;-51
2021/03/12 00:28:59;;;;;;;0.25;0.20;;;;;;;4.31;79.37;99297.22;4871064;29;20049;-49
2021/03/12 00:31:25;;;;;;;0.85;0.43;;;;;;;4.30;78.88;99292.84;4864410;29;20072;-51
2021/03/12 00:33:52;;;;;;;1.08;0.30;;;;;;;4.30;79.16;99301.06;4872193;29;20056;-50
2021/03/12 00:36:18;;;;;;;1.10;0.57;;;;;;;4.28;78.89;99298.69;4875032;29;20052;-53
2021/03/12 00:38:44;;;;;;;3.90;0.40;;;;;;;4.22;78.88;99300.03;4878638;29;20087;-49
2021/03/12 00:41:11;;;;;;;1.73;0.47;;;;;;;4.18;79.63;99288.13;4871882;29;20102;-50
2021/03/12 00:43:41;;;;;;;2.70;0.38;;;;;;;4.17;79.09;99292.03;4860896;29;20347;-51
2021/03/12 00:46:09;;;;;;;2.35;0.40;;;;;;;4.17;79.11;99297.50;4864607;29;20544;-51
2021/03/12 00:48:36;;;;;;;1.90;0.43;;;;;;;4.19;79.13;99288.94;4879845;29;20054;-51
2021/03/12 00:51:04;;;;;;;0.40;0.25;;;;;;;4.21;79.43;99284.72;4864319;29;20080;-49
2021/03/12 00:53:31;;;;;;;0.55;0.35;;;;;;;4.22;79.19;99291.00;4863531;29;20488;-51
2021/03/12 00:55:57;;;;;;;1.23;0.50;;;;;;;4.20;79.44;99280.41;4860818;29;20042;-50
2021/03/12 00:58:25;;;;;;;2.38;0.63;;;;;;;4.18;79.62;99293.63;4876321;29;20041;-49
2021/03/12 01:00:51;;;;;;;3.22;0.50;;;;;;;4.18;79.72;99282.66;4849246;29;20074;-53
2021/03/12 01:03:18;;;;;;;1.30;0.70;;;;;;;4.18;79.85;99279.91;4842812;29;20839;-49
2021/03/12 01:05:45;;;;;;;4.00;1.05;;;;;;;4.15;79.98;99272.41;4848738;29;20060;-48
2021/03/12 01:08:12;;;;;;;3.00;0.55;;;;;;;4.12;79.83;99267.59;4845894;29;20089;-47
2021/03/12 01:10:39;;;;;;;4.10;1.58;;;;;;;4.06;79.93;99268.94;4845700;29;20104;-50
2021/03/12 01:13:06;;;;;;;2.13;0.80;;;;;;;4.06;79.94;99262.66;4851907;29;20052;-52
2021/03/12 01:15:35;;;;;;;1.77;0.80;;;;;;;4.05;80.35;99256.38;4853152;29;20140;-53
2021/03/12 01:18:03;;;;;;;1.20;0.60;;;;;;;4.07;80.06;99253.31;4843844;29;20060;-50
2021/03/12 01:20:36;;;;;;;3.30;0.80;;;;;;;4.02;80.53;99262.56;4840722;29;20514;-51
2021/03/12 01:23:03;;;;;;;5.18;0.65;;;;;;;4.03;80.70;99236.75;4840063;29;20102;-53
2021/03/12 01:25:38;;;;;;;1.27;0.70;;;;;;;4.02;80.90;99240.66;4844519;29;20558;-49
2021/03/12 01:28:06;;;;;;;1.48;0.45;;;;;;;4.05;80.21;99247.38;4829753;29;20106;-51
2021/03/12 01:30:45;;;;;;;2.40;0.55;;;;;;;4.02;80.35;99240.66;4847112;29;20046;-51
2021/03/12 01:33:11;;;;;;;0.90;0.43;;;;;;;4.02;80.20;99237.91;4856287;29;20117;-47
2021/03/12 01:35:38;;;;;;;2.92;0.52;;;;;;;4.03;80.34;99227.75;4856368;29;20140;-52
2021/03/12 01:38:06;;;;;;;1.58;0.65;;;;;;;4.04;80.03;99232.88;4846753;29;20127;-51
2021/03/12 01:40:36;;;;;;;2.97;0.73;;;;;;;4.03;80.13;99239.50;4845425;29;20046;-52
2021/03/12 01:43:03;;;;;;;1.10;0.40;;;;;;;4.03;80.25;99236.75;4845670;29;20565;-51
2021/03/12 01:45:36;;;;;;;1.42;0.40;;;;;;;4.03;80.40;99236.75;4849193;29;20054;-47
2021/03/12 01:48:09;;;;;;;2.72;0.40;;;;;;;4.02;80.24;99235.19;4842189;29;20065;-48
2021/03/12 01:50:36;;;;;;;1.08;0.60;;;;;;;4.03;80.34;99234.03;4848722;29;20131;-49
2021/03/12 01:53:23;;;;;;;1.63;0.52;;;;;;;4.03;80.38;99231.28;4845622;29;20469;-48
2021/03/12 01:55:50;;;;;;;2.83;0.60;;;;;;;4.04;80.28;99224.69;4841875;29;20465;-52
2021/03/12 01:58:21;;;;;;;3.38;0.70;;;;;;;4.00;80.31;99215.53;4842143;29;20100;-52
2021/03/12 02:00:48;;;;;;;5.53;0.80;;;;;;;3.97;80.35;99221.66;4844794;29;20576;-52
2021/03/12 02:03:17;;;;;;;3.70;0.77;;;;;;;3.92;80.74;99204.69;4857165;29;20101;-53
2021/03/12 02:05:43;;;;;;;5.00;1.48;;;;;;;3.92;81.08;99208.19;4861182;29;20081;-48
2021/03/12 02:08:10;;;;;;;4.72;1.45;;;;;;;3.92;80.78;99208.19;4875279;29;20049;-49
2021/03/12 02:10:37;;;;;;;2.47;0.88;;;;;;;3.91;81.07;99203.88;4863219;29;20086;-54
2021/03/12 02:13:36;;;;;;;7.82;1.00;;;;;;;3.90;81.82;99194.06;4865754;29;20049;-49
2021/03/12 02:16:40;;;;;;;7.05;1.83;;;;;;;3.90;82.34;99174.91;4853134;29;20132;-52
2021/03/12 02:19:44;;;;;;;5.35;0.95;;;;;;;3.88;82.59;99199.09;4860229;29;20071;-48
2021/03/12 02:22:13;;;;;;;4.05;0.75;;;;;;;3.88;82.05;99190.88;4830478;29;20045;-47
2021/03/12 02:24:53;;;;;;;2.60;0.50;;;;;;;3.86;81.92;99187.69;4876542;29;20419;-49
2021/03/12 02:27:22;;;;;;;5.63;0.70;;;;;;;3.86;81.71;99170.44;4852594;29;20056;-53
2021/03/12 02:29:53;;;;;;;1.00;0.57;;;;;;;3.88;81.95;99173.63;4863735;29;20093;-49
2021/03/12 02:32:41;;;;;;;3.55;0.80;;;;;;;3.90;82.15;99154.94;4868334;29;20109;-52
2021/03/12 02:35:20;;;;;;;2.72;0.50;;;;;;;3.87;83.65;99145.47;4860626;29;20057;-52
2021/03/12 02:37:50;;;;;;;4.05;1.30;;;;;;;3.89;82.68;99148.66;4866563;29;20164;-49
2021/03/12 02:40:19;;;;;;;5.00;0.95;;;;;;;3.89;82.36;99148.66;4869436;29;20045;-52
2021/03/12 02:42:46;;;;;;;3.42;0.88;;;;;;;3.91;82.68;99151.06;4867382;29;20518;-51
2021/03/12 02:45:17;;;;;;;4.18;0.80;;;;;;;3.92;82.68;99150.72;4871405;29;20460;-51
2021/03/12 02:47:44;;;;;;;8.90;1.65;;;;;;;3.96;83.08;99137.16;4878586;29;20506;-54
2021/03/12 02:50:11;;;;;;;2.88;0.95;;;;;;;3.99;82.76;99141.94;4867180;29;20045;-51
2021/03/12 02:52:39;;;;;;;0.93;0.60;;;;;;;4.03;82.49;99129.16;4857573;29;20073;-49
2021/03/12 02:55:07;;;;;;;1.92;1.20;;;;;;;4.06;82.52;99137.50;4867938;29;20069;-50
2021/03/12 02:57:34;;;;;;;5.25;1.30;;;;;;;4.10;82.60;99137.63;4877746;29;20115;-52
2021/03/12 03:00:00;;;;;;;1.58;0.82;;;;;;;4.12;82.91;99125.19;4867708;29;20132;-54
2021/03/12 03:02:28;;;;;;;6.07;1.00;;;;;;;4.15;82.77;99124.50;4857030;29;20084;-51
2021/03/12 03:04:57;;;;;;;6.50;1.63;;;;;;;4.18;82.51;99120.28;4868144;29;20587;-49
2021/03/12 03:07:26;;;;;;;6.07;1.00;;;;;;;4.20;82.68;99118.00;4855203;29;20080;-50
2021/03/12 03:09:53;;;;;;;4.55;2.28;;;;;;;4.22;82.48;99110.22;4863760;29;20041;-49
2021/03/12 03:12:23;;;;;;;2.33;1.27;;;;;;;4.23;82.99;99107.16;4869067;29;20041;-49
2021/03/12 03:14:55;;;;;;;6.47;1.20;;;;;;;4.24;82.62;99102.47;4877259;29;20051;-53
2021/03/12 03:17:21;;;;;;;;;;;;;;;4.24;83.39;99097.78;4854180;29;20085;-48
2021/03/12 03:19:49;;;;;;;5.90;0.80;;;;;;;4.28;82.52;99100.66;4858656;29;19931;-51
2021/03/12 03:22:18;;;;;;;3.72;0.70;;;;;;;4.30;82.86;99106.56;4864939;29;20556;-51
2021/03/12 03:24:45;;;;;;;3.95;1.27;;;;;;;4.32;82.71;99109.75;4863140;29;20060;-54
2021/03/12 03:27:12;;;;;;;1.00;0.60;;;;;;;4.31;82.91;99108.97;4876673;29;20087;-51
2021/03/12 03:29:41;;;;;;;4.28;0.95;;;;;;;4.35;82.69;99102.78;4874281;29;20110;-55
2021/03/12 03:32:08;;;;;;;2.80;0.95;;;;;;;4.36;82.82;99093.44;4852918;29;20045;-54
2021/03/12 03:34:34;;;;;;;2.22;0.70;;;;;;;4.35;82.92;99086.38;4861183;29;20065;-52
2021/03/12 03:37:01;;;;;;;2.72;0.70;;;;;;;4.35;83.06;99089.91;4852888;29;20396;-53
2021/03/12 03:39:27;;;;;;;1.95;0.40;;;;;;;4.36;83.25;99077.00;4871974;29;20049;-54
2021/03/12 03:41:59;;;;;;;3.85;0.55;;;;;;;4.31;83.20;99081.56;4867495;29;20097;-51
2021/03/12 03:44:28;;;;;;;5.97;0.55;;;;;;;4.32;83.67;99085.91;4868342;29;20049;-51
2021/03/12 03:46:56;;;;;;;2.00;0.73;;;;;;;4.32;83.26;99071.41;4875420;29;20076;-53
2021/03/12 03:49:25;;;;;;;1.05;0.43;;;;;;;4.35;83.43;99076.22;4865917;29;20052;-54
2021/03/12 03:51:52;;;;;;;5.57;0.65;;;;;;;4.35;83.20;99072.66;4874836;29;20176;-54
2021/03/12 03:54:21;;;;;;;2.58;0.73;;;;;;;4.38;83.24;99063.75;4844051;29;20080;-49
2021/03/12 03:56:50;;;;;;;4.75;0.43;;;;;;;4.39;82.85;99068.09;4859230;29;20088;-50
2021/03/12 03:59:18;;;;;;;1.42;0.95;;;;;;;4.37;83.22;99062.94;4858922;29;20108;-51
2021/03/12 04:01:46;;;;;;;2.90;0.90;;;;;;;4.36;83.37;99074.28;4865537;29;20476;-51
2021/03/12 04:04:14;;;;;;;5.13;0.52;;;;;;;4.36;82.99;99071.53;4877662;29;20056;-53
2021/03/12 04:06:42;;;;;;;2.42;0.50;;;;;;;4.36;83.29;99057.84;4869479;29;20095;-53
2021/03/12 04:09:12;;;;;;;1.25;0.43;;;;;;;4.37;83.01;99062.19;4873197;29;20079;-50
2021/03/12 04:11:40;;;;;;;1.83;0.30;;;;;;;4.34;83.24;99060.94;4858468;29;20144;-51
2021/03/12 04:14:06;;;;;;;6.00;0.70;;;;;;;4.29;83.48;99067.41;4862135;29;20093;-49
2021/03/12 04:16:33;;;;;;;2.05;0.20;;;;;;;4.28;83.23;99060.38;4859540;29;20092;-54
2021/03/12 04:19:01;;;;;;;0.40;0.17;;;;;;;4.30;83.37;99063.56;4870928;29;20052;-54
2021/03/12 04:21:28;;;;;;;2.22;0.32;;;;;;;4.31;83.39;99053.41;4872973;29;20049;-52
2021/03/12 04:23:56;;;;;;;1.73;0.20;;;;;;;4.28;83.17;99057.63;4874974;29;20045;-50
2021/03/12 04:26:24;;;;;;;0.65;0.47;;;;;;;4.26;83.44;99054.41;4869565;29;20063;-54
2021/03/12 04:28:51;;;;;;;6.88;0.80;;;;;;;4.27;83.26;99066.97;4865752;29;20516;-54
2021/03/12 04:31:18;;;;;;;1.55;1.10;;;;;;;4.27;83.57;99072.44;4859537;29;20053;-56
2021/03/12 04:33:44;;;;;;;2.10;0.80;;;;;;;4.27;83.83;99093.56;4858479;29;20063;-54
2021/03/12 04:36:12;;;;;;;0.63;0.30;;;;;;;4.20;83.58;99094.16;4870996;29;20132;-54
2021/03/12 04:38:39;;;;;;;3.95;0.60;;;;;;;4.09;84.18;99117.66;4866505;29;20058;-53
2021/03/12 04:41:06;;;;;;;0.45;0.25;;;;;;;3.95;84.02;99117.19;4860094;29;20576;-56
2021/03/12 04:43:33;;;;;;;0.55;0.10;;;;;;;3.75;83.61;99120.00;4871887;29;20133;-51
2021/03/12 04:46:02;;;;;;;0.00;0.00;;;;;;;3.56;84.10;99110.41;4867542;29;20224;-52
2021/03/12 04:48:33;;;;;;;1.55;0.22;;;;;;;3.46;83.95;99113.56;4853484;29;20165;-52
2021/03/12 04:51:00;;;;;;;0.10;0.00;;;;;;;3.40;83.65;99090.28;4880451;29;20075;-54
2021/03/12 04:53:29;;;;;;;0.10;0.10;;;;;;;3.32;83.83;99069.31;4871988;29;20472;-48
2021/03/12 04:55:57;;;;;;;0.70;0.10;;;;;;;3.32;83.74;99069.31;4868517;29;20059;-54
2021/03/12 04:58:26;;;;;;;0.98;0.13;;;;;;;3.30;84.13;99087.19;4856221;29;20049;-56
2021/03/12 05:00:54;;;;;;;0.17;0.15;;;;;;;3.30;83.95;99084.44;4842725;29;20081;-52
2021/03/12 05:03:21;;;;;;;0.10;0.03;;;;;;;3.26;83.57;99070.63;4843004;29;20107;-53
2021/03/12 05:05:49;;;;;;;1.60;0.10;;;;;;;3.19;83.60;99069.59;4842427;29;20409;-53
2021/03/12 05:08:17;;;;;;;0.30;0.10;;;;;;;3.13;83.51;99070.94;4842737;29;20138;-54
2021/03/12 05:11:03;;;;;;;0.35;0.30;;;;;;;3.02;83.73;99062.34;4843938;29;20082;-53
2021/03/12 05:13:29;;;;;;;3.47;0.20;;;;;;;3.02;83.42;99068.63;4843136;29;20128;-52
2021/03/12 05:15:56;;;;;;;0.73;0.17;;;;;;;3.01;83.50;99075.25;4825816;29;20114;-54
2021/03/12 05:18:24;;;;;;;0.20;0.10;;;;;;;2.97;83.57;99070.75;4841980;29;20128;-51
2021/03/12 05:20:51;;;;;;;0.00;0.00;;;;;;;2.97;83.25;99074.31;4842948;29;20053;-54
2021/03/12 05:23:18;;;;;;;0.10;0.10;;;;;;;2.95;83.67;99064.84;4842733;29;20489;-50
2021/03/12 05:25:45;;;;;;;0.13;0.00;;;;;;;2.92;83.54;99068.25;4841575;29;20062;-54
2021/03/12 05:28:12;;;;;;;0.00;0.00;;;;;;;2.91;83.60;99067.44;4826290;29;20132;-52
2021/03/12 05:30:38;;;;;;;0.20;0.00;;;;;;;2.90;83.75;99062.31;4842791;29;20111;-51
2021/03/12 05:33:05;;;;;;;0.20;0.10;;;;;;;2.87;83.87;99061.06;4855773;29;20208;-51
2021/03/12 05:35:32;;;;;;;0.28;0.10;;;;;;;2.84;83.74;99053.53;4845646;29;20485;-54
2021/03/12 05:37:59;;;;;;;0.00;0.00;;;;;;;2.79;83.68;99031.88;4842218;29;20056;-50
2021/03/12 05:40:25;;;;;;;0.00;0.00;;;;;;;2.75;83.57;99041.88;4842015;29;20093;-53
2021/03/12 05:42:52;;;;;;;0.00;0.00;;;;;;;2.70;83.39;99044.03;4842087;29;20050;-54
2021/03/12 05:45:20;;;;;;;0.00;0.00;;;;;;;2.63;83.76;99041.81;4835903;29;20117;-54
2021/03/12 05:47:47;;;;;;;0.00;0.00;;;;;;;2.58;83.79;99050.22;4841941;29;20041;-53
2021/03/12 05:50:14;;;;;;;0.00;0.00;;;;;;;2.53;84.12;99055.06;4842117;29;20136;-54
2021/03/12 05:52:44;;;;;;;0.15;0.00;;;;;;;2.52;83.93;99053.47;4841775;29;20136;-52
2021/03/12 05:55:14;;;;;;;0.00;0.00;;;;;;;2.51;84.35;99049.97;4825466;29;20094;-48
2021/03/12 05:57:41;;;;;;;0.10;0.10;;;;;;;2.49;84.13;99046.75;4841962;29;20086;-50
2021/03/12 06:00:07;;;;;;;0.10;0.10;;;;;;;2.50;84.35;99053.81;4854557;29;20154;-53
2021/03/12 06:02:34;;;;;;;0.90;0.28;;;;;;;2.52;84.07;99045.28;4858396;29;20050;-53
2021/03/12 06:05:00;;;;;;;1.48;0.28;;;;;;;2.53;84.43;99042.22;4864843;29;20046;-51
2021/03/12 06:07:27;;;;;;;3.47;0.30;;;;;;;2.57;84.31;99048.59;4860437;29;20049;-53
2021/03/12 06:09:53;;;;;;;0.63;0.20;;;;;;;2.57;84.29;99050.56;4859767;29;20469;-52
2021/03/12 06:12:19;;;;;;;4.97;0.30;;;;;;;2.60;84.29;99037.00;4870117;29;20072;-51
2021/03/12 06:14:52;;;;;;;2.67;0.17;;;;;;;2.60;84.26;99045.22;4871930;29;20465;-53
2021/03/12 06:17:31;;;;;;;2.72;0.25;;;;;;;2.63;84.69;99058.19;4862370;29;20132;-53
2021/03/12 06:19:59;;;;;;;1.60;0.65;;;;;;;2.66;84.50;99046.63;4859895;29;20133;-49
2021/03/12 06:22:25;;;;;;;4.90;0.32;;;;;;;2.68;84.59;99044.34;4863776;29;20049;-50
2021/03/12 06:24:52;;;;;;;0.80;0.40;;;;;;;2.71;84.32;99048.34;4872908;29;20083;-51
2021/03/12 06:27:30;;;;;;;3.10;1.80;;;;;;;2.72;84.48;99053.47;4855292;29;20049;-52
2021/03/12 06:29:58;;;;;;;3.03;0.40;;;;;;;2.75;84.07;99043.81;4868296;29;20109;-51
2021/03/12 06:32:43;;;;;;;2.35;0.50;;;;;;;2.73;84.32;99035.94;4873319;29;20080;-54
2021/03/12 06:35:12;;;;;;;1.65;0.25;;;;;;;2.75;84.16;99044.63;4870375;29;20037;-49
2021/03/12 06:37:39;;;;;;;0.30;0.30;;;;;;;2.77;84.13;99050.53;4860100;29;20078;-52
2021/03/12 06:40:22;;;;;;;1.90;0.30;;;;;;;2.75;84.84;99047.34;4871820;29;20136;-52
2021/03/12 06:43:00;;;;;;;;;;;;;;;2.76;85.07;99059.06;4868638;29;20132;-52
2021/03/12 06:45:27;;;;;;;0.60;0.25;;;;;;;2.78;84.29;99065.78;4864444;29;20035;-53
2021/03/12 06:48:13;;;;;;;1.25;0.40;;;;;;;2.78;84.27;99060.31;4872230;29;20109;-49
2021/03/12 06:50:52;;;;;;;7.32;0.52;;;;;;;2.76;84.69;99053.59;4864632;29;20057;-53
2021/03/12 06:53:22;;;;;;;4.63;0.43;;;;;;;2.78;84.35;99071.25;4859468;29;20128;-49
2021/03/12 06:55:49;;;;;;;2.63;0.68;;;;;;;2.77;84.45;99066.94;4871386;29;20055;-51
2021/03/12 06:58:15;;;;;;;0.75;0.22;;;;;;;2.78;83.98;99065.78;4863676;29;20437;-52
2021/03/12 07:00:42;;;;;;;1.83;0.38;;;;;;;2.79;84.45;99063.84;4854934;29;20049;-55
2021/03/12 07:03:17;;;;;;;1.83;0.50;;;;;;;2.77;84.78;99069.66;4864971;29;20059;-54
2021/03/12 07:06:03;;;;;;;2.05;0.25;;;;;;;2.76;84.94;99061.78;4870618;29;20079;-52
2021/03/12 07:08:40;;;;;;;1.23;0.47;;;;;;;2.77;84.50;99064.19;4873265;29;20077;-51
2021/03/12 07:11:23;;;;;;;3.47;0.77;;;;;;;2.77;85.26;99057.94;4855578;29;20069;-52
2021/03/12 07:13:58;;;;;;;3.15;1.10;;;;;;;2.79;85.07;99072.06;4867620;29;20048;-50
2021/03/12 07:16:28;;;;;;;5.70;0.57;;;;;;;2.81;84.50;99064.31;4870442;29;20415;-52
2021/03/12 07:18:56;;;;;;;2.28;0.77;;;;;;;2.85;84.63;99060.59;4842509;29;20149;-49
2021/03/12 07:21:28;;;;;;;3.70;0.47;;;;;;;2.88;84.97;99075.53;4867848;29;20449;-50
2021/03/12 07:24:02;;;;;;;2.77;0.53;;;;;;;2.94;85.02;99074.97;4860991;29;20132;-52
2021/03/12 07:26:36;;;;;;;3.65;0.70;;;;;;;2.97;84.73;99071.56;4871803;29;20049;-52
2021/03/12 07:29:06;;;;;;;2.05;0.38;;;;;;;3.01;84.92;99075.25;4860394;29;20120;-51
2021/03/12 07:31:36;;;;;;;7.63;1.27;;;;;;;3.04;84.69;99077.28;4845138;29;20141;-51
2021/03/12 07:34:10;;;;;;;2.17;0.35;;;;;;;3.07;84.40;99073.88;4867125;29;20121;-53
2021/03/12 07:36:43;;;;;;;3.17;0.70;;;;;;;3.10;84.53;99077.88;4859424;29;20136;-49
2021/03/12 07:39:15;;;;;;;2.45;1.05;;;;;;;3.12;84.71;99074.81;4861659;29;20094;-51
2021/03/12 07:41:43;;;;;;;8.77;0.98;;;;;;;3.15;84.68;99074.16;4862650;29;20132;-54
2021/03/12 07:44:18;;;;;;;2.70;0.60;;;;;;;3.14;84.57;99078.81;4858819;29;20085;-50
2021/03/12 07:46:49;;;;;;;3.55;0.90;;;;;;;3.18;84.49;99081.69;4859533;29;20068;-50
2021/03/12 07:49:42;;;;;;;7.55;0.60;;;;;;;3.20;84.62;99087.63;4863220;29;20045;-51
2021/03/12 07:52:09;;;;;;;1.23;0.50;;;;;;;3.23;84.58;99090.44;4843195;29;20458;-52
2021/03/12 07:54:35;;;;;;;2.92;0.70;;;;;;;3.27;84.36;99090.59;4860701;29;20060;-49
2021/03/12 07:57:05;;;;;;;2.58;0.60;;;;;;;3.29;84.33;99096.50;4876106;29;20468;-54
2021/03/12 07:59:47;;;;;;;2.25;0.60;;;;;;;3.30;84.48;99082.53;4875817;29;20121;-54
2021/03/12 08:02:14;;;;;;;;;;;;;;;3.32;85.11;99102.13;4844794;29;20045;-52
2021/03/12 08:04:48;;;;;;;3.65;0.80;;;;;;;3.36;84.84;99097.56;4859033;29;19959;-54
2021/03/12 08:07:20;;;;;;;4.15;0.90;;;;;;;3.40;84.31;99089.47;4840203;29;20095;-51
2021/03/12 08:09:51;;;;;;;5.82;1.50;;;;;;;3.42;84.94;99089.94;4863364;29;20049;-50
2021/03/12 08:12:31;;;;;;;5.15;0.95;;;;;;;3.45;84.86;99094.75;4864709;29;20049;-52
2021/03/12 08:15:18;;;;;;;4.07;0.95;;;;;;;3.46;84.72;99079.94;4865766;29;20052;-54
2021/03/12 08:18:07;;;;;;;6.07;1.15;;;;;;;3.50;84.86;99091.78;4845042;29;20053;-55
2021/03/12 08:20:39;;;;;;;8.25;0.95;;;;;;;3.58;84.35;99110.03;4839708;29;20524;-54
2021/03/12 08:23:12;;;;;;;6.40;1.13;;;;;;;3.60;84.15;99111.31;4861312;29;20057;-51
2021/03/12 08:25:40;;;;;;;5.43;1.05;;;;;;;3.61;84.12;99109.38;4862682;29;20041;-50
2021/03/12 08:28:06;;;;;;;8.63;1.02;;;;;;;3.66;84.47;99114.63;4853791;29;20493;-54
2021/03/12 08:30:35;;;;;;;6.55;1.73;;;;;;;3.68;84.09;99112.34;4862518;29;20060;-52
2021/03/12 08:33:06;;;;;;;8.32;1.15;;;;;;;3.73;84.25;99108.59;4869416;29;20037;-51
2021/03/12 08:35:33;;;;;;;5.25;1.20;;;;;;;3.84;84.08;99121.50;4849158;29;20512;-50
2021/03/12 08:38:10;;;;;;;7.50;2.05;;;;;;;3.93;84.33;99114.00;4849307;29;20527;-48
2021/03/12 08:40:42;;;;;;;4.13;0.95;;;;;;;3.97;84.06;99112.16;4870392;29;20109;-49
2021/03/12 08:43:16;;;;;;;3.53;1.02;;;;;;;3.97;83.88;99125.84;4860020;29;20132;-52
2021/03/12 08:45:53;;;;;;;5.15;0.80;;;;;;;3.97;83.68;99123.09;4866470;29;20143;-52
2021/03/12 08:48:29;;;;;;;7.20;1.03;;;;;;;3.92;83.32;99120.59;4862702;29;20060;-54
2021/03/12 08:51:15;;;;;;;9.55;1.00;;;;;;;3.89;83.54;99115.03;4876311;29;20296;-54
2021/03/12 08:53:49;;;;;;;7.35;3.95;;;;;;;3.90;83.83;99116.59;4873442;29;20171;-54
2021/03/12 08:56:43;;;;;;;5.38;0.98;;;;;;;3.97;83.57;99128.59;4861349;29;20845;-52
2021/03/12 08:59:10;;;;;;;6.03;0.98;;;;;;;4.05;83.91;99115.94;4863437;29;20049;-54
2021/03/12 09:01:36;;;;;;;3.55;0.90;;;;;;;4.15;83.74;99124.50;4855578;29;20141;-54
2021/03/12 09:04:04;;;;;;;7.90;1.13;;;;;;;4.22;83.60;99113.78;4873598;29;20782;-55
2021/03/12 09:06:34;;;;;;;8.23;1.63;;;;;;;4.27;83.31;99120.97;4868507;29;20102;-52
2021/03/12 09:09:08;;;;;;;14.90;1.67;;;;;;;4.32;83.17;99124.25;4859615;29;20101;-55
2021/03/12 09:11:35;;;;;;;4.75;1.30;;;;;;;4.37;83.19;99116.97;4857331;29;20488;-56
2021/03/12 09:14:03;;;;;;;6.88;1.13;;;;;;;4.43;83.19;99113.66;4858296;29;20116;-54
2021/03/12 09:16:31;;;;;;;5.53;1.25;;;;;;;4.52;82.92;99124.50;4844746;29;20067;-53
2021/03/12 09:19:02;;;;;;;4.55;1.33;;;;;;;4.60;82.66;99121.63;4857933;29;20053;-54
2021/03/12 09:21:29;;;;;;;6.78;1.50;;;;;;;4.69;83.09;99105.84;4854783;29;20049;-55
2021/03/12 09:23:57;;;;;;;7.65;1.45;;;;;;;4.84;82.23;99112.56;4859089;29;20057;-55
2021/03/12 09:26:32;;;;;;;2.33;1.33;;;;;;;4.89;82.10;99137.78;4853012;29;20049;-54
2021/03/12 09:29:03;;;;;;;7.00;2.03;;;;;;;5.00;81.97;99135.38;4838728;29;20054;-55
2021/03/12 09:31:33;;;;;;;4.78;1.52;;;;;;;5.11;82.03;99139.19;4868877;29;20069;-52
2021/03/12 09:34:01;;;;;;;7.55;1.45;;;;;;;5.20;82.03;99119.84;4861631;29;20141;-55
2021/03/12 09:36:32;;;;;;;6.45;1.23;;;;;;;5.19;81.42;99113.56;4871264;29;20506;-51
2021/03/12 09:39:07;;;;;;;6.53;1.10;;;;;;;5.22;81.09;99123.84;4841635;29;20777;-50
2021/03/12 09:41:37;;;;;;;7.78;1.98;;;;;;;5.24;80.92;99120.75;4858493;29;20101;-52
2021/03/12 09:44:05;;;;;;;8.30;1.38;;;;;;;5.29;81.21;99123.25;4874547;29;20067;-55
2021/03/12 09:46:41;;;;;;;5.45;1.17;;;;;;;5.37;80.84;99125.03;4876657;29;20045;-55
2021/03/12 09:49:40;;;;;;;5.47;1.00;;;;;;;5.46;80.77;99142.94;4873646;29;20053;-58
2021/03/12 09:52:08;;;;;;;8.87;2.00;;;;;;;5.53;80.75;99134.13;4861613;29;20136;-57
2021/03/12 09:54:35;;;;;;;5.32;1.15;;;;;;;5.54;79.97;99135.69;4862162;29;20081;-55
2021/03/12 09:57:02;;;;;;;5.82;0.80;;;;;;;5.50;79.64;99141.13;4858042;29;20504;-55
2021/03/12 09:59:32;;;;;;;5.25;0.80;;;;;;;5.57;79.92;99136.94;4872268;29;20485;-57
2021/03/12 10:02:19;;;;;;;5.53;1.20;;;;;;;5.72;80.38;99136.19;4858322;29;20049;-53
2021/03/12 10:05:03;;;;;;;9.75;1.13;;;;;;;5.84;79.43;99153.38;4858352;29;20057;-56
2021/03/12 10:07:47;;;;;;;5.70;0.73;;;;;;;5.98;79.55;99144.75;4863016;29;20096;-52
2021/03/12 10:10:24;;;;;;;3.80;1.40;;;;;;;6.13;77.94;99149.44;4843733;29;20046;-54
2021/03/12 10:12:56;;;;;;;5.93;1.02;;;;;;;6.39;79.49;99143.41;4851630;29;20060;-53
2021/03/12 10:15:41;;;;;;;11.95;1.73;;;;;;;6.61;78.36;99140.81;4864512;29;20056;-56
2021/03/12 10:18:22;;;;;;;8.18;1.27;;;;;;;6.70;76.45;99133.16;4862572;29;20060;-56
2021/03/12 10:21:09;;;;;;;8.32;1.42;;;;;;;6.73;77.28;99143.44;4850488;29;20069;-53
2021/03/12 10:23:36;;;;;;;11.13;2.45;;;;;;;6.69;76.98;99130.78;4857769;29;20103;-55
2021/03/12 10:26:07;;;;;;;9.73;1.60;;;;;;;6.67;76.57;99133.09;4857202;29;20053;-57
2021/03/12 10:28:33;;;;;;;8.35;2.20;;;;;;;6.66;76.64;99126.78;4839556;29;20132;-54
2021/03/12 10:31:00;;;;;;;8.70;2.05;;;;;;;6.87;76.96;99128.41;4856735;29;20050;-53
2021/03/12 10:33:31;;;;;;;7.70;2.10;;;;;;;7.14;77.37;99117.22;4873620;29;20057;-56
2021/03/12 10:36:04;;;;;;;10.80;1.58;;;;;;;7.51;75.92;99117.56;4859304;29;20068;-51
2021/03/12 10:38:35;;;;;;;8.00;2.58;;;;;;;8.11;75.29;99109.56;4857522;29;20076;-54
2021/03/12 10:41:14;;;;;;;10.07;2.88;;;;;;;8.50;74.43;99113.78;4852084;29;20457;-53
2021/03/12 10:43:40;;;;;;;9.50;2.08;;;;;;;8.65;74.47;99099.06;4870372;29;20061;-55
2021/03/12 10:46:08;;;;;;;7.43;1.70;;;;;;;8.53;73.08;99113.03;4875573;29;20132;-53
2021/03/12 10:48:43;;;;;;;10.63;2.20;;;;;;;8.76;71.92;99105.53;4861415;29;20063;-50
2021/03/12 10:51:12;;;;;;;14.05;2.25;;;;;;;8.81;71.95;99096.91;4856858;29;20049;-51
2021/03/12 10:53:47;;;;;;;13.05;2.05;;;;;;;8.73;70.63;99094.44;4863417;29;20426;-51
2021/03/12 10:56:14;;;;;;;7.57;2.05;;;;;;;8.86;71.00;99102.09;4848732;29;20061;-48
2021/03/12 10:58:41;;;;;;;5.82;1.95;;;;;;;8.74;70.80;99091.28;4860533;29;20052;-51
2021/03/12 11:01:30;;;;;;;7.68;2.40;;;;;;;8.66;68.07;99089.59;4859743;29;20053;-47
2021/03/12 11:03:59;;;;;;;9.10;2.25;;;;;;;8.55;68.92;99100.47;4869658;29;20076;-51
2021/03/12 11:06:31;;;;;;;12.43;2.15;;;;;;;8.61;67.98;99092.66;4857029;29;20053;-51
2021/03/12 11:08:57;;;;;;;7.20;1.05;;;;;;;8.53;68.08;99113.03;4862467;29;20512;-54
2021/03/12 11:11:26;;;;;;;4.88;0.88;;;;;;;8.39;67.35;99101.81;4864835;29;20057;-51
2021/03/12 11:13:52;;;;;;;9.63;1.58;;;;;;;8.57;67.05;99094.59;4864160;29;20061;-49
2021/03/12 11:16:19;;;;;;;6.35;1.35;;;;;;;8.74;66.07;99094.03;4856733;29;20061;-54
2021/03/12 11:18:46;;;;;;;4.90;1.85;;;;;;;8.78;65.62;99107.91;4866156;29;20465;-53
2021/03/12 11:21:14;;;;;;;11.88;3.83;;;;;;;8.75;65.52;99106.69;4857035;29;20061;-49
2021/03/12 11:23:45;;;;;;;10.27;1.30;;;;;;;8.78;65.77;99097.66;4873395;29;20448;-49
2021/03/12 11:26:15;;;;;;;20.70;2.00;;;;;;;8.70;63.78;99084.94;4874892;29;20151;-52
2021/03/12 11:28:41;;;;;;;4.75;1.20;;;;;;;8.75;65.52;99103.91;4866917;29;20057;-49
2021/03/12 11:31:09;;;;;;;5.82;1.55;;;;;;;8.81;65.27;99077.59;4856971;29;20061;-51
2021/03/12 11:33:37;;;;;;;6.45;1.77;;;;;;;8.79;65.13;99088.19;4875450;29;20053;-52
2021/03/12 11:36:07;;;;;;;4.68;1.10;;;;;;;8.80;65.26;99087.03;4863157;29;20561;-55
2021/03/12 11:38:35;;;;;;;6.85;2.85;;;;;;;8.70;64.96;99101.50;4861992;29;20135;-51
2021/03/12 11:41:02;;;;;;;7.25;1.30;;;;;;;8.55;64.63;99083.16;4875421;29;20053;-49
2021/03/12 11:43:29;;;;;;;12.05;1.38;;;;;;;8.39;64.18;99085.25;4874108;29;20064;-52
2021/03/12 11:45:55;;;;;;;6.38;1.48;;;;;;;8.29;64.82;99088.63;4873754;29;20069;-52
2021/03/12 11:48:24;;;;;;;9.70;2.05;;;;;;;8.25;64.81;99096.03;4866124;29;20053;-53
2021/03/12 11:50:51;;;;;;;10.10;2.13;;;;;;;8.25;64.73;99091.31;4859977;29;20090;-51
2021/03/12 11:53:20;;;;;;;7.63;2.03;;;;;;;8.22;64.72;99085.75;4862471;29;20060;-54
2021/03/12 11:55:46;;;;;;;5.60;2.08;;;;;;;8.31;64.83;99091.84;4871638;29;20730;-52
2021/03/12 11:58:13;;;;;;;3.40;1.08;;;;;;;8.37;64.47;99091.13;4861896;29;20788;-51